Aviation Digital Data Service (ADDS)

Output produced by METARs form (1426 UTC 19 February 2020)
found at http://aviationweather.gov/metar/data/
 
KMTJ 191124Z 1912/2012 17003KT P6SM SCT150 
     FM192100 32006KT P6SM SCT200 
     FM200200 28005KT P6SM BKN120